createdAt,value
2022-08-12T00:00:59.494Z,27.12
2022-08-12T00:03:47.124Z,27.12
2022-08-12T00:06:35.672Z,26.43
2022-08-12T00:09:26.205Z,26.43
2022-08-12T00:12:12.158Z,26.52
2022-08-12T00:14:59.403Z,27.11
2022-08-12T00:17:46.793Z,27.11
2022-08-12T00:20:34.225Z,27.16
2022-08-12T00:23:22.288Z,27.87
2022-08-12T00:26:22.320Z,27.87
2022-08-12T00:28:58.956Z,28.20
2022-08-12T00:31:45.985Z,27.46
2022-08-12T00:34:34.418Z,27.47
2022-08-12T00:37:21.538Z,28.15
2022-08-12T00:40:11.220Z,27.17
2022-08-12T00:42:42.252Z,27.17
2022-08-12T00:45:12.371Z,28.01
2022-08-12T00:47:41.685Z,30.84
2022-08-12T00:50:14.295Z,30.92
2022-08-12T00:52:45.019Z,30.92
2022-08-12T00:55:14.391Z,30.14
2022-08-12T00:57:49.202Z,30.14
2022-08-12T01:00:21.790Z,30.75
2022-08-12T01:02:57.841Z,30.75
2022-08-12T01:05:46.413Z,29.12
2022-08-12T01:08:34.145Z,29.12
2022-08-12T01:11:21.585Z,29.38
2022-08-12T01:13:51.781Z,34.24
2022-08-12T01:16:22.902Z,34.24
2022-08-12T01:18:55.165Z,36.73
2022-08-12T01:21:48.875Z,35.96
2022-08-12T01:24:34.355Z,34.46
2022-08-12T01:27:07.425Z,34.46
2022-08-12T01:29:38.895Z,33.54
2022-08-12T01:32:10.576Z,32.43
2022-08-12T01:34:42.586Z,32.63
2022-08-12T01:37:13.657Z,31.85
2022-08-12T01:40:31.596Z,30.85
2022-08-12T01:42:22.516Z,28.87
2022-08-12T01:44:54.205Z,32.05
2022-08-12T01:47:34.917Z,31.62
2022-08-12T01:50:16.920Z,30.85
2022-08-12T01:52:48.989Z,30.50
2022-08-12T01:55:21.048Z,30.50
2022-08-12T01:58:01.922Z,30.68
2022-08-12T02:00:55.367Z,30.68
2022-08-12T02:03:52.036Z,30.50
2022-08-12T02:07:06.101Z,29.35
2022-08-12T02:10:07.867Z,29.35
2022-08-12T02:13:13.701Z,28.87
2022-08-12T02:16:00.614Z,29.35
2022-08-12T02:18:49.507Z,29.97
2022-08-12T02:21:49.077Z,29.97
2022-08-12T02:24:24.201Z,30.19
2022-08-12T02:26:57.825Z,30.19
2022-08-12T02:29:28.079Z,29.81
2022-08-12T02:31:59.589Z,30.25
2022-08-12T02:34:30.334Z,30.17
2022-08-12T02:37:02.418Z,30.17
2022-08-12T02:39:35.246Z,29.62
2022-08-12T02:42:07.214Z,29.80
2022-08-12T02:44:40.437Z,30.68
2022-08-12T02:48:00.322Z,30.68
2022-08-12T02:49:45.588Z,30.03
2022-08-12T02:52:17.762Z,30.03
2022-08-12T02:54:49.716Z,30.45
2022-08-12T02:57:21.084Z,31.62
2022-08-12T02:59:52.414Z,31.76
2022-08-12T03:02:24.077Z,29.80
2022-08-12T03:04:56.979Z,29.32
2022-08-12T03:07:56.386Z,29.32
2022-08-12T03:10:14.640Z,31.34
2022-08-12T03:12:48.834Z,32.48
2022-08-12T03:15:18.432Z,32.48
2022-08-12T03:18:25.401Z,31.89
2022-08-12T03:20:28.515Z,33.19
2022-08-12T03:22:57.483Z,33.19
2022-08-12T03:25:27.577Z,32.18
2022-08-12T03:27:58.579Z,32.02
2022-08-12T03:30:32.228Z,30.60
2022-08-12T03:33:03.356Z,31.51
2022-08-12T03:35:41.331Z,31.51
2022-08-12T03:38:11.748Z,31.59
2022-08-12T03:41:16.690Z,31.93
2022-08-12T03:44:12.485Z,31.93
2022-08-12T03:47:02.168Z,31.81
2022-08-12T03:49:49.654Z,30.86
2022-08-12T03:52:36.618Z,31.80
2022-08-12T03:55:24.937Z,31.57
2022-08-12T03:58:11.653Z,31.75
2022-08-12T04:00:40.907Z,31.55
2022-08-12T04:03:12.999Z,31.55
2022-08-12T04:05:54.706Z,30.70
2022-08-12T04:08:14.875Z,31.86
2022-08-12T04:11:01.707Z,31.22
2022-08-12T04:13:30.928Z,30.51
2022-08-12T04:16:01.974Z,29.88
2022-08-12T04:18:33.089Z,31.54
2022-08-12T04:21:02.904Z,29.56
2022-08-12T04:23:33.970Z,29.84
2022-08-12T04:26:03.034Z,29.84
2022-08-12T04:28:32.151Z,30.52
2022-08-12T04:31:01.549Z,30.52
2022-08-12T04:33:32.264Z,30.70
2022-08-12T04:36:01.365Z,29.83
2022-08-12T04:38:31.893Z,30.77
2022-08-12T04:41:02.540Z,30.78
2022-08-12T04:44:00.055Z,31.46
2022-08-12T04:46:03.174Z,31.34
2022-08-12T04:48:32.983Z,30.79
2022-08-12T04:51:03.315Z,30.79
2022-08-12T04:53:33.328Z,28.57
2022-08-12T04:56:02.645Z,28.59
2022-08-12T04:58:32.028Z,28.59
2022-08-12T05:01:04.841Z,30.40
2022-08-12T05:03:46.102Z,30.35
2022-08-12T05:06:08.327Z,30.10
2022-08-12T05:08:37.750Z,29.54
2022-08-12T05:11:07.418Z,29.54
2022-08-12T05:13:39.610Z,30.44
2022-08-12T05:16:09.963Z,29.29
2022-08-12T05:18:40.873Z,29.76
2022-08-12T05:21:11.738Z,29.60
2022-08-12T05:23:43.154Z,29.33
2022-08-12T05:26:12.584Z,33.65
2022-08-12T05:28:41.865Z,33.65
2022-08-12T05:31:12.796Z,30.48
2022-08-12T05:33:42.435Z,30.67
2022-08-12T05:36:16.722Z,30.67
2022-08-12T05:38:59.573Z,30.96
2022-08-12T05:41:35.419Z,30.25
2022-08-12T05:44:07.480Z,31.09
2022-08-12T05:46:37.971Z,30.47
2022-08-12T05:49:07.905Z,31.15
2022-08-12T05:51:39.817Z,29.23
2022-08-12T05:54:11.389Z,29.23
2022-08-12T05:56:42.682Z,29.26
2022-08-12T05:59:13.018Z,27.77
2022-08-12T06:02:09.720Z,27.77
2022-08-12T06:04:14.575Z,26.23
2022-08-12T06:06:43.766Z,26.23
2022-08-12T06:09:13.471Z,27.94
2022-08-12T06:11:54.031Z,27.40
2022-08-12T06:14:13.524Z,27.40
2022-08-12T06:16:44.443Z,28.59
2022-08-12T06:19:13.546Z,28.59
2022-08-12T06:21:43.167Z,28.48
2022-08-12T06:24:13.892Z,28.48
2022-08-12T06:26:44.622Z,28.32
2022-08-12T06:29:15.372Z,28.32
2022-08-12T06:31:46.431Z,27.89
2022-08-12T06:35:24.010Z,27.98
2022-08-12T06:36:49.390Z,27.59
2022-08-12T06:39:18.664Z,27.59
2022-08-12T06:42:42.091Z,27.14
2022-08-12T06:44:36.788Z,26.32
2022-08-12T06:47:06.056Z,26.92
2022-08-12T06:49:36.947Z,26.92
2022-08-12T06:52:07.595Z,27.55
2022-08-12T06:54:36.850Z,27.25
2022-08-12T06:57:59.777Z,27.25
2022-08-12T06:59:38.609Z,25.82
2022-08-12T07:02:08.884Z,25.82
2022-08-12T07:04:39.400Z,26.79
2022-08-12T07:07:10.923Z,27.13
2022-08-12T07:10:03.643Z,26.04
2022-08-12T07:12:15.142Z,25.23
2022-08-12T07:14:48.468Z,25.23
2022-08-12T07:17:16.402Z,22.58
2022-08-12T07:19:48.672Z,23.92
2022-08-12T07:22:18.417Z,23.69
2022-08-12T07:24:49.269Z,24.70
2022-08-12T07:27:18.425Z,25.17
2022-08-12T07:30:03.405Z,23.58
2022-08-12T07:32:18.768Z,23.58
2022-08-12T07:34:47.956Z,23.08
2022-08-12T07:37:17.971Z,23.17
2022-08-12T07:39:50.846Z,22.68
2022-08-12T07:42:17.942Z,23.08
2022-08-12T07:44:47.646Z,22.62
2022-08-12T07:47:18.442Z,23.78
2022-08-12T07:50:05.232Z,21.90
2022-08-12T07:52:18.696Z,21.90
2022-08-12T07:54:48.403Z,21.80
2022-08-12T07:57:17.601Z,22.05
2022-08-12T07:59:46.796Z,22.86
2022-08-12T08:02:17.601Z,23.68
2022-08-12T08:04:58.931Z,23.65
2022-08-12T08:07:30.788Z,25.00
2022-08-12T08:10:02.590Z,25.00
2022-08-12T08:12:50.271Z,23.84
2022-08-12T08:15:20.972Z,24.86
2022-08-12T08:17:59.870Z,24.86
2022-08-12T08:20:33.138Z,24.48
2022-08-12T08:23:08.175Z,24.24
2022-08-12T08:25:39.016Z,24.04
2022-08-12T08:28:17.803Z,25.19
2022-08-12T08:30:49.605Z,24.80
2022-08-12T08:34:01.234Z,25.16
2022-08-12T08:35:51.374Z,25.54
2022-08-12T08:38:31.976Z,26.01
2022-08-12T08:41:11.202Z,26.01
2022-08-12T08:43:44.108Z,24.48
2022-08-12T08:46:11.183Z,24.48
2022-08-12T08:48:41.271Z,25.53
2022-08-12T08:51:10.526Z,24.32
2022-08-12T08:53:41.373Z,24.32
2022-08-12T08:56:11.208Z,24.21
2022-08-12T08:58:43.522Z,22.83
2022-08-12T09:01:14.627Z,22.83
2022-08-12T09:05:08.639Z,21.83
2022-08-12T09:06:17.201Z,22.50
2022-08-12T09:08:46.969Z,22.55
2022-08-12T09:12:07.572Z,22.55
2022-08-12T09:14:10.875Z,22.55
2022-08-12T09:16:41.599Z,21.94
2022-08-12T09:19:27.653Z,23.42
2022-08-12T09:24:19.938Z,23.63
2022-08-12T09:26:49.866Z,23.63
2022-08-12T09:30:09.852Z,25.20
2022-08-12T09:32:04.013Z,24.58
2022-08-12T09:34:33.623Z,25.46
2022-08-12T09:37:01.591Z,23.90
2022-08-12T09:40:05.800Z,24.63
2022-08-12T09:42:38.734Z,23.15
2022-08-12T09:45:18.886Z,24.50
2022-08-12T09:47:37.811Z,24.50
2022-08-12T09:50:20.159Z,24.13
2022-08-12T09:52:40.507Z,24.13
2022-08-12T09:56:05.561Z,25.37
2022-08-12T09:58:44.533Z,24.98
2022-08-12T10:00:19.733Z,23.62
2022-08-12T10:03:09.033Z,23.62
2022-08-12T10:06:27.897Z,23.84
2022-08-12T10:08:18.643Z,24.25
2022-08-12T10:11:07.774Z,24.25
2022-08-12T10:13:45.380Z,24.47
2022-08-12T10:16:22.409Z,24.47
2022-08-12T10:19:02.734Z,23.97
2022-08-12T10:21:41.628Z,23.76
2022-08-12T10:24:20.270Z,22.95
2022-08-12T10:27:05.666Z,23.80
2022-08-12T10:30:03.580Z,24.98
2022-08-12T10:32:21.366Z,25.10
2022-08-12T10:34:53.560Z,25.10
2022-08-12T10:38:32.493Z,24.78
2022-08-12T10:40:08.175Z,23.82
2022-08-12T10:42:46.097Z,23.82
2022-08-12T10:45:14.321Z,24.92
2022-08-12T10:48:19.300Z,24.92
2022-08-12T10:50:28.134Z,23.80
2022-08-12T10:52:47.791Z,24.90
2022-08-12T10:55:19.781Z,24.90
2022-08-12T10:58:13.370Z,25.92
2022-08-12T11:00:35.146Z,23.88
2022-08-12T11:04:20.501Z,25.13
2022-08-12T11:07:09.011Z,25.13
2022-08-12T11:08:37.663Z,24.43
2022-08-12T11:10:27.236Z,24.90
2022-08-12T11:12:59.560Z,25.72
2022-08-12T11:15:32.868Z,25.72
2022-08-12T11:17:59.304Z,25.89
2022-08-12T11:20:30.727Z,25.89
2022-08-12T11:23:25.263Z,24.74
2022-08-12T11:25:55.780Z,25.24
2022-08-12T11:28:05.735Z,26.09
2022-08-12T11:30:35.074Z,26.23
2022-08-12T11:33:04.132Z,26.58
2022-08-12T11:35:36.504Z,27.44
2022-08-12T11:38:06.804Z,27.44
2022-08-12T11:40:37.842Z,26.65
2022-08-12T11:43:19.202Z,27.47
2022-08-12T11:45:39.425Z,27.47
2022-08-12T11:48:08.614Z,27.90
2022-08-12T11:50:42.151Z,26.71
2022-08-12T11:53:56.916Z,25.50
2022-08-12T11:55:46.659Z,26.73
2022-08-12T11:59:30.891Z,27.96
2022-08-12T12:03:13.539Z,27.86
2022-08-12T12:05:45.683Z,28.42
2022-08-12T12:08:40.412Z,27.86
2022-08-12T12:10:56.507Z,28.50
2022-08-12T12:14:08.866Z,28.42
2022-08-12T12:15:56.944Z,28.42
2022-08-12T12:18:30.709Z,26.65
2022-08-12T12:21:03.941Z,26.65
2022-08-12T12:23:36.366Z,26.51
2022-08-12T12:26:18.536Z,26.30
2022-08-12T12:28:39.709Z,27.33
2022-08-12T12:31:14.760Z,27.95
2022-08-12T12:33:56.967Z,27.50
2022-08-12T12:36:20.780Z,26.02
2022-08-12T12:38:42.569Z,26.02
2022-08-12T12:41:16.236Z,26.00
2022-08-12T12:43:44.699Z,27.10
2022-08-12T12:46:13.454Z,28.14
2022-08-12T12:48:44.706Z,28.90
2022-08-12T12:51:22.252Z,27.92
2022-08-12T12:54:07.839Z,27.02
2022-08-12T12:56:33.828Z,27.02
2022-08-12T12:58:56.631Z,28.51
2022-08-12T13:01:30.915Z,29.47
2022-08-12T13:04:02.624Z,29.49
2022-08-12T13:06:31.446Z,29.74
2022-08-12T13:09:03.631Z,29.31
2022-08-12T13:11:41.400Z,29.31
2022-08-12T13:14:12.548Z,29.03
2022-08-12T13:16:43.788Z,29.82
2022-08-12T13:19:11.637Z,28.30
2022-08-12T13:21:43.944Z,29.02
2022-08-12T13:24:13.226Z,29.49
2022-08-12T13:26:43.937Z,29.49
2022-08-12T13:29:13.226Z,28.99
2022-08-12T13:32:18.709Z,28.75
2022-08-12T13:34:33.550Z,29.43
2022-08-12T13:36:47.375Z,30.40
2022-08-12T13:39:16.809Z,30.40
2022-08-12T13:41:45.998Z,29.75
2022-08-12T13:44:16.835Z,29.95
2022-08-12T13:46:46.017Z,30.56
2022-08-12T13:49:17.718Z,31.01
2022-08-12T13:51:49.324Z,31.01
2022-08-12T13:54:19.883Z,29.49
2022-08-12T13:56:49.942Z,30.23
2022-08-12T13:59:24.465Z,30.23
2022-08-12T14:01:53.838Z,31.64
2022-08-12T14:04:24.844Z,29.16
2022-08-12T14:06:54.368Z,29.76
2022-08-12T14:09:23.541Z,29.82
2022-08-12T14:11:58.733Z,30.77
2022-08-12T14:14:25.234Z,29.61
2022-08-12T14:16:54.432Z,30.34
2022-08-12T14:19:26.504Z,29.65
2022-08-12T14:22:00.960Z,29.65
2022-08-12T14:24:26.963Z,29.41
2022-08-12T14:26:57.167Z,29.61
2022-08-12T14:29:56.000Z,30.08
2022-08-12T14:32:00.526Z,31.11
2022-08-12T14:34:31.227Z,31.11
2022-08-12T14:37:02.473Z,30.51
2022-08-12T14:39:34.092Z,30.26
2022-08-12T14:42:05.427Z,29.63
2022-08-12T14:44:59.267Z,27.13
2022-08-12T14:47:07.946Z,31.02
2022-08-12T14:50:33.791Z,31.02
2022-08-12T14:53:50.656Z,30.51
2022-08-12T14:57:23.032Z,30.24
2022-08-12T15:00:00.349Z,30.24
2022-08-12T15:02:29.948Z,29.23
2022-08-12T15:05:03.548Z,30.19
2022-08-12T15:07:48.915Z,30.45
2022-08-12T15:10:04.014Z,30.45
2022-08-12T15:12:33.927Z,30.03
2022-08-12T15:15:03.006Z,28.10
2022-08-12T15:17:37.887Z,29.73
2022-08-12T15:20:31.456Z,29.62
2022-08-12T15:22:53.632Z,29.31
2022-08-12T15:25:17.701Z,29.58
2022-08-12T15:28:10.985Z,29.58
2022-08-12T15:30:14.475Z,29.11
2022-08-12T15:32:48.706Z,28.21
2022-08-12T15:35:17.491Z,28.21
2022-08-12T15:38:10.518Z,28.31
2022-08-12T15:40:30.205Z,28.31
2022-08-12T15:42:51.019Z,28.88
2022-08-12T15:45:23.747Z,28.58
2022-08-12T15:48:16.186Z,28.58
2022-08-12T15:50:27.687Z,29.57
2022-08-12T15:52:58.260Z,29.57
2022-08-12T15:55:33.593Z,29.01
2022-08-12T15:58:01.953Z,29.01
2022-08-12T16:00:35.889Z,29.10
2022-08-12T16:03:13.615Z,28.56
2022-08-12T16:06:10.987Z,28.80
2022-08-12T16:08:21.231Z,28.72
2022-08-12T16:10:45.209Z,28.72
2022-08-12T16:13:32.813Z,28.22
2022-08-12T16:16:01.692Z,29.48
2022-08-12T16:18:22.005Z,28.93
2022-08-12T16:20:52.569Z,27.56
2022-08-12T16:23:36.043Z,28.50
2022-08-12T16:26:05.727Z,28.50
2022-08-12T16:28:28.216Z,28.09
2022-08-12T16:30:59.130Z,28.77
2022-08-12T16:33:59.487Z,28.11
2022-08-12T16:36:18.904Z,27.79
2022-08-12T16:38:46.004Z,28.40
2022-08-12T16:41:15.290Z,27.82
2022-08-12T16:43:46.925Z,26.99
2022-08-12T16:46:31.130Z,26.99
2022-08-12T16:48:49.202Z,28.46
2022-08-12T16:51:20.249Z,26.67
2022-08-12T16:53:50.591Z,26.77
2022-08-12T16:56:20.000Z,26.77
2022-08-12T16:58:49.218Z,28.27
2022-08-12T17:01:20.064Z,28.27
2022-08-12T17:04:08.894Z,28.23
2022-08-12T17:06:44.869Z,27.63
2022-08-12T17:09:17.146Z,25.68
2022-08-12T17:11:46.794Z,26.94
2022-08-12T17:14:16.948Z,26.83
2022-08-12T17:16:46.167Z,25.92
2022-08-12T17:19:17.163Z,25.51
2022-08-12T17:22:01.060Z,26.52
2022-08-12T17:24:30.641Z,26.36
2022-08-12T17:26:56.640Z,26.85
2022-08-12T17:30:00.597Z,26.27
2022-08-12T17:32:01.551Z,26.27
2022-08-12T17:34:49.425Z,25.95
2022-08-12T17:37:19.132Z,26.60
2022-08-12T17:40:13.562Z,27.47
2022-08-12T17:42:32.544Z,27.47
2022-08-12T17:44:52.869Z,26.38
2022-08-12T17:47:24.945Z,26.23
2022-08-12T17:50:01.751Z,26.44
2022-08-12T17:52:33.273Z,26.65
2022-08-12T17:54:57.446Z,26.17
2022-08-12T17:57:28.927Z,26.57
2022-08-12T18:00:00.504Z,26.68
2022-08-12T18:02:32.368Z,28.65
2022-08-12T18:05:05.401Z,27.48
2022-08-12T18:07:35.697Z,27.48
2022-08-12T18:10:05.225Z,27.95
2022-08-12T18:12:47.949Z,26.66
2022-08-12T18:15:26.911Z,26.66
2022-08-12T18:17:49.729Z,26.76
2022-08-12T18:20:20.544Z,26.76
2022-08-12T18:22:52.522Z,26.45
2022-08-12T18:26:13.260Z,27.76
2022-08-12T18:28:11.757Z,27.70
2022-08-12T18:30:34.569Z,26.16
2022-08-12T18:33:05.659Z,27.11
2022-08-12T18:35:46.237Z,27.13
2022-08-12T18:38:08.718Z,27.40
2022-08-12T18:41:01.337Z,27.07
2022-08-12T18:43:37.020Z,27.99
2022-08-12T18:46:06.104Z,26.80
2022-08-12T18:48:39.902Z,27.73
2022-08-12T18:51:21.767Z,26.83
2022-08-12T18:54:05.399Z,28.11
2022-08-12T18:56:32.537Z,26.52
2022-08-12T18:58:59.560Z,27.72
2022-08-12T19:02:19.623Z,27.72
2022-08-12T19:04:07.965Z,27.95
2022-08-12T19:06:41.658Z,28.58
2022-08-12T19:09:15.076Z,28.27
2022-08-12T19:12:03.729Z,28.80
2022-08-12T19:14:35.681Z,27.85
2022-08-12T19:17:11.403Z,28.45
2022-08-12T19:19:41.913Z,28.53
2022-08-12T19:22:09.928Z,28.10
2022-08-12T19:24:57.157Z,28.10
2022-08-12T19:27:27.145Z,27.17
2022-08-12T19:30:06.562Z,28.09
2022-08-12T19:32:31.493Z,26.81
2022-08-12T19:38:03.145Z,28.37
2022-08-12T19:40:30.928Z,28.24
2022-08-12T19:42:44.645Z,28.59
2022-08-12T19:45:12.722Z,28.14
2022-08-12T19:47:43.503Z,27.66
2022-08-12T19:50:19.886Z,28.71
2022-08-12T19:52:46.864Z,28.71
2022-08-12T19:55:21.253Z,27.45
2022-08-12T19:58:01.601Z,26.82
2022-08-12T20:00:22.642Z,29.33
2022-08-12T20:02:53.332Z,29.32
2022-08-12T20:06:03.317Z,29.32
2022-08-12T20:08:00.506Z,28.31
2022-08-12T20:10:35.642Z,28.20
2022-08-12T20:13:19.230Z,28.83
2022-08-12T20:15:44.509Z,28.60
2022-08-12T20:18:07.446Z,28.03
2022-08-12T20:20:39.519Z,28.99
2022-08-12T20:23:11.862Z,28.83
2022-08-12T20:25:53.495Z,27.62
2022-08-12T20:28:15.001Z,28.37
2022-08-12T20:30:53.699Z,27.50
2022-08-12T20:33:17.413Z,26.48
2022-08-12T20:36:06.422Z,28.38
2022-08-12T20:38:26.653Z,26.83
2022-08-12T20:40:48.254Z,26.40
2022-08-12T20:43:19.007Z,26.40
2022-08-12T20:45:51.269Z,28.38
2022-08-12T20:48:21.784Z,28.36
2022-08-12T20:50:53.422Z,28.36
2022-08-12T20:53:28.853Z,28.59
2022-08-12T20:55:57.418Z,27.82
2022-08-12T20:58:24.908Z,27.82
2022-08-12T21:00:54.106Z,27.99
2022-08-12T21:03:52.330Z,29.70
2022-08-12T21:06:30.175Z,28.16
2022-08-12T21:09:00.299Z,26.99
2022-08-12T21:11:30.466Z,26.99
2022-08-12T21:13:59.515Z,26.70
2022-08-12T21:16:35.560Z,27.28
2022-08-12T21:19:01.081Z,26.88
2022-08-12T21:21:46.815Z,27.30
2022-08-12T21:24:02.774Z,27.71
2022-08-12T21:26:33.489Z,27.01
2022-08-12T21:29:04.199Z,28.44
2022-08-12T21:32:40.816Z,28.44
2022-08-12T21:34:09.351Z,27.65
2022-08-12T21:36:43.154Z,28.67
2022-08-12T21:39:18.691Z,28.67
2022-08-12T21:41:44.422Z,27.10
2022-08-12T21:44:32.619Z,27.10
2022-08-12T21:46:53.635Z,27.59
2022-08-12T21:49:55.030Z,27.59
2022-08-12T21:51:56.356Z,28.10
2022-08-12T21:54:27.255Z,28.69
2022-08-12T21:56:56.530Z,28.91
2022-08-12T21:59:26.169Z,28.72
2022-08-12T22:02:02.732Z,28.95
2022-08-12T22:04:51.575Z,29.15
2022-08-12T22:07:21.180Z,29.15
2022-08-12T22:09:57.091Z,29.01
2022-08-12T22:12:37.571Z,29.01
2022-08-12T22:15:07.926Z,29.36
2022-08-12T22:17:50.390Z,29.90
2022-08-12T22:20:12.716Z,28.83
2022-08-12T22:22:43.014Z,30.22
2022-08-12T22:25:14.636Z,30.22
2022-08-12T22:28:02.636Z,30.88
2022-08-12T22:30:39.053Z,29.78
2022-08-12T22:33:15.616Z,31.47
2022-08-12T22:35:56.414Z,31.03
2022-08-12T22:38:17.270Z,31.03
2022-08-12T22:40:51.409Z,30.60
2022-08-12T22:43:58.570Z,29.97
2022-08-12T22:46:10.715Z,29.97
2022-08-12T22:48:50.383Z,31.03
2022-08-12T22:51:10.622Z,30.34
2022-08-12T22:53:41.484Z,29.89
2022-08-12T22:56:14.289Z,29.46
2022-08-12T22:58:44.166Z,28.71
2022-08-12T23:01:21.141Z,29.75
2022-08-12T23:03:48.788Z,29.75
2022-08-12T23:06:17.176Z,29.37
2022-08-12T23:08:46.217Z,29.27
2022-08-12T23:11:16.231Z,29.01
2022-08-12T23:13:55.141Z,29.01
2022-08-12T23:16:29.289Z,29.58
2022-08-12T23:18:52.193Z,29.64
2022-08-12T23:21:23.675Z,28.25
2022-08-12T23:24:09.928Z,28.23
2022-08-12T23:26:26.125Z,29.07
2022-08-12T23:29:29.837Z,28.70
2022-08-12T23:32:03.499Z,28.47
2022-08-12T23:34:21.064Z,28.93
2022-08-12T23:36:52.236Z,28.07
2022-08-12T23:40:15.583Z,27.44
2022-08-12T23:41:56.013Z,28.04
2022-08-12T23:44:31.600Z,27.76
2022-08-12T23:47:03.591Z,28.79
2022-08-12T23:49:57.239Z,28.47
2022-08-12T23:52:07.359Z,28.85
2022-08-12T23:54:44.694Z,28.85
2022-08-12T23:57:17.049Z,27.77
2022-08-12T23:59:55.413Z,27.77
